sensor_id;sensor_type;location;lat;lon;timestamp;temperature;humidity
12815;DHT22;6472;52.328;13.070;2023-04-01T00:00:02;8.20;99.90
12815;DHT22;6472;52.328;13.070;2023-04-01T00:02:30;8.20;99.90
12815;DHT22;6472;52.328;13.070;2023-04-01T00:04:59;8.30;99.90
12815;DHT22;6472;52.328;13.070;2023-04-01T00:07:27;8.20;99.90
12815;DHT22;6472;52.328;13.070;2023-04-01T00:09:56;8.20;99.90
12815;DHT22;6472;52.328;13.070;2023-04-01T00:12:24;8.20;99.90
12815;DHT22;6472;52.328;13.070;2023-04-01T00:14:54;8.20;99.90
12815;DHT22;6472;52.328;13.070;2023-04-01T00:17:22;8.20;99.90
12815;DHT22;6472;52.328;13.070;2023-04-01T00:19:50;8.20;99.90
12815;DHT22;6472;52.328;13.070;2023-04-01T00:22:18;8.30;99.90
12815;DHT22;6472;52.328;13.070;2023-04-01T00:24:46;8.30;99.90
12815;DHT22;6472;52.328;13.070;2023-04-01T00:27:14;8.50;99.90
12815;DHT22;6472;52.328;13.070;2023-04-01T00:29:43;8.30;99.90
12815;DHT22;6472;52.328;13.070;2023-04-01T00:32:13;8.30;99.90
12815;DHT22;6472;52.328;13.070;2023-04-01T00:34:41;8.30;99.90
12815;DHT22;6472;52.328;13.070;2023-04-01T00:37:10;8.30;99.90
12815;DHT22;6472;52.328;13.070;2023-04-01T00:39:39;8.30;99.90
12815;DHT22;6472;52.328;13.070;2023-04-01T00:42:08;8.30;99.90
12815;DHT22;6472;52.328;13.070;2023-04-01T00:44:38;8.30;99.90
12815;DHT22;6472;52.328;13.070;2023-04-01T00:47:06;8.30;99.90
12815;DHT22;6472;52.328;13.070;2023-04-01T00:49:38;8.30;99.90
12815;DHT22;6472;52.328;13.070;2023-04-01T00:52:08;8.30;99.90
12815;DHT22;6472;52.328;13.070;2023-04-01T00:54:39;8.30;99.90
12815;DHT22;6472;52.328;13.070;2023-04-01T00:57:12;8.30;99.90
12815;DHT22;6472;52.328;13.070;2023-04-01T00:59:44;8.30;99.90
12815;DHT22;6472;52.328;13.070;2023-04-01T01:02:14;8.30;99.90
12815;DHT22;6472;52.328;13.070;2023-04-01T01:04:45;8.30;99.90
12815;DHT22;6472;52.328;13.070;2023-04-01T01:07:21;8.30;99.90
12815;DHT22;6472;52.328;13.070;2023-04-01T01:09:56;8.30;99.90
12815;DHT22;6472;52.328;13.070;2023-04-01T01:12:30;8.30;99.90
12815;DHT22;6472;52.328;13.070;2023-04-01T01:15:06;8.30;99.90
12815;DHT22;6472;52.328;13.070;2023-04-01T01:17:44;8.30;99.90
12815;DHT22;6472;52.328;13.070;2023-04-01T01:23:29;8.30;99.90
12815;DHT22;6472;52.328;13.070;2023-04-01T01:26:19;8.40;99.90
12815;DHT22;6472;52.328;13.070;2023-04-01T01:29:01;8.40;99.90
12815;DHT22;6472;52.328;13.070;2023-04-01T01:31:44;8.40;99.90
12815;DHT22;6472;52.328;13.070;2023-04-01T01:34:20;8.40;99.90
12815;DHT22;6472;52.328;13.070;2023-04-01T01:36:55;8.40;99.90
12815;DHT22;6472;52.328;13.070;2023-04-01T01:39:26;8.50;99.90
12815;DHT22;6472;52.328;13.070;2023-04-01T01:47:13;8.50;99.90
12815;DHT22;6472;52.328;13.070;2023-04-01T01:49:43;8.40;99.90
12815;DHT22;6472;52.328;13.070;2023-04-01T01:52:14;8.40;99.90
12815;DHT22;6472;52.328;13.070;2023-04-01T01:54:49;8.40;99.90
12815;DHT22;6472;52.328;13.070;2023-04-01T01:57:17;8.40;99.90
12815;DHT22;6472;52.328;13.070;2023-04-01T01:59:48;8.40;99.90
12815;DHT22;6472;52.328;13.070;2023-04-01T02:02:17;8.40;99.90
12815;DHT22;6472;52.328;13.070;2023-04-01T02:04:46;8.40;99.90
12815;DHT22;6472;52.328;13.070;2023-04-01T02:07:21;8.40;99.90
12815;DHT22;6472;52.328;13.070;2023-04-01T02:09:49;8.40;99.90
12815;DHT22;6472;52.328;13.070;2023-04-01T02:12:19;8.40;99.90
12815;DHT22;6472;52.328;13.070;2023-04-01T02:14:52;8.40;99.90
12815;DHT22;6472;52.328;13.070;2023-04-01T02:17:22;8.40;99.90
12815;DHT22;6472;52.328;13.070;2023-04-01T02:19:53;8.40;99.90
12815;DHT22;6472;52.328;13.070;2023-04-01T02:22:25;8.50;99.90
12815;DHT22;6472;52.328;13.070;2023-04-01T02:24:58;8.50;99.90
12815;DHT22;6472;52.328;13.070;2023-04-01T02:27:27;8.50;99.90
12815;DHT22;6472;52.328;13.070;2023-04-01T02:29:56;8.40;99.90
12815;DHT22;6472;52.328;13.070;2023-04-01T02:32:25;8.40;99.90
12815;DHT22;6472;52.328;13.070;2023-04-01T02:34:55;8.40;99.90
12815;DHT22;6472;52.328;13.070;2023-04-01T02:37:25;8.40;99.90
12815;DHT22;6472;52.328;13.070;2023-04-01T02:39:53;8.40;99.90
12815;DHT22;6472;52.328;13.070;2023-04-01T02:42:21;8.50;99.90
12815;DHT22;6472;52.328;13.070;2023-04-01T02:44:49;8.40;99.90
12815;DHT22;6472;52.328;13.070;2023-04-01T02:47:17;8.50;99.90
12815;DHT22;6472;52.328;13.070;2023-04-01T02:49:45;8.50;99.90
12815;DHT22;6472;52.328;13.070;2023-04-01T02:52:13;8.40;99.90
12815;DHT22;6472;52.328;13.070;2023-04-01T02:54:42;8.40;99.90
12815;DHT22;6472;52.328;13.070;2023-04-01T02:57:10;8.40;99.90
12815;DHT22;6472;52.328;13.070;2023-04-01T02:59:38;8.40;99.90
12815;DHT22;6472;52.328;13.070;2023-04-01T03:02:06;8.40;99.90
12815;DHT22;6472;52.328;13.070;2023-04-01T03:04:35;8.30;99.90
12815;DHT22;6472;52.328;13.070;2023-04-01T03:07:03;8.30;99.90
12815;DHT22;6472;52.328;13.070;2023-04-01T03:09:31;8.30;99.90
12815;DHT22;6472;52.328;13.070;2023-04-01T03:12:00;8.30;99.90
12815;DHT22;6472;52.328;13.070;2023-04-01T03:14:28;8.30;99.90
12815;DHT22;6472;52.328;13.070;2023-04-01T03:16:56;8.30;99.90
12815;DHT22;6472;52.328;13.070;2023-04-01T03:19:24;8.40;99.90
12815;DHT22;6472;52.328;13.070;2023-04-01T03:21:52;8.40;99.90
12815;DHT22;6472;52.328;13.070;2023-04-01T03:24:20;8.40;99.90
12815;DHT22;6472;52.328;13.070;2023-04-01T03:26:48;8.40;99.90
12815;DHT22;6472;52.328;13.070;2023-04-01T03:29:18;8.40;99.90
12815;DHT22;6472;52.328;13.070;2023-04-01T03:31:46;8.40;99.90
12815;DHT22;6472;52.328;13.070;2023-04-01T03:34:14;8.40;99.90
12815;DHT22;6472;52.328;13.070;2023-04-01T03:36:42;8.40;99.90
12815;DHT22;6472;52.328;13.070;2023-04-01T03:39:10;8.40;99.90
12815;DHT22;6472;52.328;13.070;2023-04-01T03:41:38;8.40;99.90
12815;DHT22;6472;52.328;13.070;2023-04-01T03:44:07;8.40;99.90
12815;DHT22;6472;52.328;13.070;2023-04-01T03:46:36;8.40;99.90
12815;DHT22;6472;52.328;13.070;2023-04-01T03:49:06;8.50;99.90
12815;DHT22;6472;52.328;13.070;2023-04-01T03:51:38;8.60;99.90
12815;DHT22;6472;52.328;13.070;2023-04-01T03:54:06;8.50;99.90
12815;DHT22;6472;52.328;13.070;2023-04-01T03:56:35;8.50;99.90
12815;DHT22;6472;52.328;13.070;2023-04-01T03:59:03;8.50;99.90
12815;DHT22;6472;52.328;13.070;2023-04-01T04:01:32;8.60;99.90
12815;DHT22;6472;52.328;13.070;2023-04-01T04:04:01;8.60;99.90
12815;DHT22;6472;52.328;13.070;2023-04-01T04:06:29;8.60;99.90
12815;DHT22;6472;52.328;13.070;2023-04-01T04:08:57;8.60;99.90
12815;DHT22;6472;52.328;13.070;2023-04-01T04:11:25;8.60;99.90
12815;DHT22;6472;52.328;13.070;2023-04-01T04:13:53;8.60;99.90
12815;DHT22;6472;52.328;13.070;2023-04-01T04:16:23;8.60;99.90
12815;DHT22;6472;52.328;13.070;2023-04-01T04:18:51;8.60;99.90
12815;DHT22;6472;52.328;13.070;2023-04-01T04:21:21;8.60;99.90
12815;DHT22;6472;52.328;13.070;2023-04-01T04:23:49;8.60;99.90
12815;DHT22;6472;52.328;13.070;2023-04-01T04:26:17;8.50;99.90
12815;DHT22;6472;52.328;13.070;2023-04-01T04:28:45;8.50;99.90
12815;DHT22;6472;52.328;13.070;2023-04-01T04:31:18;8.50;99.90
12815;DHT22;6472;52.328;13.070;2023-04-01T04:33:47;8.50;99.90
12815;DHT22;6472;52.328;13.070;2023-04-01T04:36:15;8.50;99.90
12815;DHT22;6472;52.328;13.070;2023-04-01T04:38:45;8.50;99.90
12815;DHT22;6472;52.328;13.070;2023-04-01T04:41:14;8.50;99.90
12815;DHT22;6472;52.328;13.070;2023-04-01T04:43:48;8.50;99.90
12815;DHT22;6472;52.328;13.070;2023-04-01T04:46:17;8.50;99.90
12815;DHT22;6472;52.328;13.070;2023-04-01T04:48:45;8.50;99.90
12815;DHT22;6472;52.328;13.070;2023-04-01T04:51:14;8.50;99.90
12815;DHT22;6472;52.328;13.070;2023-04-01T04:53:45;8.50;99.90
12815;DHT22;6472;52.328;13.070;2023-04-01T04:56:13;8.50;99.90
12815;DHT22;6472;52.328;13.070;2023-04-01T04:58:44;8.50;99.90
12815;DHT22;6472;52.328;13.070;2023-04-01T05:01:14;8.50;99.90
12815;DHT22;6472;52.328;13.070;2023-04-01T05:03:43;8.50;99.90
12815;DHT22;6472;52.328;13.070;2023-04-01T05:06:13;8.50;99.90
12815;DHT22;6472;52.328;13.070;2023-04-01T05:08:41;8.60;99.90
12815;DHT22;6472;52.328;13.070;2023-04-01T05:11:13;8.60;99.90
12815;DHT22;6472;52.328;13.070;2023-04-01T05:13:41;8.70;99.90
12815;DHT22;6472;52.328;13.070;2023-04-01T05:16:10;8.80;99.90
12815;DHT22;6472;52.328;13.070;2023-04-01T05:18:39;8.90;99.90
12815;DHT22;6472;52.328;13.070;2023-04-01T05:21:08;8.90;99.90
12815;DHT22;6472;52.328;13.070;2023-04-01T05:23:36;9.00;99.90
12815;DHT22;6472;52.328;13.070;2023-04-01T05:26:05;9.00;99.90
12815;DHT22;6472;52.328;13.070;2023-04-01T05:28:34;9.10;99.90
12815;DHT22;6472;52.328;13.070;2023-04-01T05:31:03;9.10;99.90
12815;DHT22;6472;52.328;13.070;2023-04-01T05:33:32;9.20;99.90
12815;DHT22;6472;52.328;13.070;2023-04-01T05:36:06;9.30;99.90
12815;DHT22;6472;52.328;13.070;2023-04-01T05:38:34;9.30;99.90
12815;DHT22;6472;52.328;13.070;2023-04-01T05:41:03;9.40;99.90
12815;DHT22;6472;52.328;13.070;2023-04-01T05:43:31;9.50;99.90
12815;DHT22;6472;52.328;13.070;2023-04-01T05:46:00;9.50;99.90
12815;DHT22;6472;52.328;13.070;2023-04-01T05:48:28;9.60;99.90
12815;DHT22;6472;52.328;13.070;2023-04-01T05:50:57;9.60;99.90
12815;DHT22;6472;52.328;13.070;2023-04-01T05:53:25;9.70;99.90
12815;DHT22;6472;52.328;13.070;2023-04-01T05:55:52;9.80;99.90
12815;DHT22;6472;52.328;13.070;2023-04-01T05:58:20;9.90;99.90
12815;DHT22;6472;52.328;13.070;2023-04-01T06:00:48;10.00;99.90
12815;DHT22;6472;52.328;13.070;2023-04-01T06:03:36;10.10;99.90
12815;DHT22;6472;52.328;13.070;2023-04-01T06:06:08;10.30;99.90
12815;DHT22;6472;52.328;13.070;2023-04-01T06:08:42;10.30;99.90
12815;DHT22;6472;52.328;13.070;2023-04-01T06:11:19;10.50;99.90
12815;DHT22;6472;52.328;13.070;2023-04-01T06:16:54;10.60;99.90
12815;DHT22;6472;52.328;13.070;2023-04-01T06:19:36;10.70;99.90
12815;DHT22;6472;52.328;13.070;2023-04-01T06:22:33;10.70;99.90
12815;DHT22;6472;52.328;13.070;2023-04-01T06:25:29;10.90;99.90
12815;DHT22;6472;52.328;13.070;2023-04-01T06:30:58;11.00;99.90
12815;DHT22;6472;52.328;13.070;2023-04-01T06:33:39;11.00;99.90
12815;DHT22;6472;52.328;13.070;2023-04-01T06:36:30;10.90;99.90
12815;DHT22;6472;52.328;13.070;2023-04-01T06:39:31;10.90;99.90
12815;DHT22;6472;52.328;13.070;2023-04-01T06:42:22;10.90;99.90
12815;DHT22;6472;52.328;13.070;2023-04-01T06:44:59;10.90;99.90
12815;DHT22;6472;52.328;13.070;2023-04-01T06:47:43;10.90;99.90
12815;DHT22;6472;52.328;13.070;2023-04-01T06:50:21;11.00;99.90
12815;DHT22;6472;52.328;13.070;2023-04-01T06:52:59;11.00;99.90
12815;DHT22;6472;52.328;13.070;2023-04-01T06:55:34;11.00;99.90
12815;DHT22;6472;52.328;13.070;2023-04-01T06:58:06;10.90;99.90
12815;DHT22;6472;52.328;13.070;2023-04-01T07:00:40;10.90;99.90
12815;DHT22;6472;52.328;13.070;2023-04-01T07:03:18;10.90;99.90
12815;DHT22;6472;52.328;13.070;2023-04-01T07:05:48;11.00;99.90
12815;DHT22;6472;52.328;13.070;2023-04-01T07:08:21;11.20;99.90
12815;DHT22;6472;52.328;13.070;2023-04-01T07:10:54;11.20;99.90
12815;DHT22;6472;52.328;13.070;2023-04-01T07:13:27;11.30;99.90
12815;DHT22;6472;52.328;13.070;2023-04-01T07:16:04;11.40;99.90
12815;DHT22;6472;52.328;13.070;2023-04-01T07:18:38;11.40;99.90
12815;DHT22;6472;52.328;13.070;2023-04-01T07:21:23;11.40;99.90
12815;DHT22;6472;52.328;13.070;2023-04-01T07:23:57;11.50;99.90
12815;DHT22;6472;52.328;13.070;2023-04-01T07:26:28;11.60;99.90
12815;DHT22;6472;52.328;13.070;2023-04-01T07:28:57;11.70;99.90
12815;DHT22;6472;52.328;13.070;2023-04-01T07:31:39;11.90;99.90
12815;DHT22;6472;52.328;13.070;2023-04-01T07:34:15;11.90;99.90
12815;DHT22;6472;52.328;13.070;2023-04-01T07:36:51;11.90;99.90
12815;DHT22;6472;52.328;13.070;2023-04-01T07:39:33;12.00;99.90
12815;DHT22;6472;52.328;13.070;2023-04-01T07:44:42;12.30;99.90
12815;DHT22;6472;52.328;13.070;2023-04-01T07:47:36;12.30;99.90
12815;DHT22;6472;52.328;13.070;2023-04-01T07:50:13;12.40;99.90
12815;DHT22;6472;52.328;13.070;2023-04-01T07:52:50;12.50;99.90
12815;DHT22;6472;52.328;13.070;2023-04-01T07:55:26;12.50;99.90
12815;DHT22;6472;52.328;13.070;2023-04-01T07:58:02;12.50;99.90
12815;DHT22;6472;52.328;13.070;2023-04-01T08:00:37;12.60;99.90
12815;DHT22;6472;52.328;13.070;2023-04-01T08:03:21;12.70;99.90
12815;DHT22;6472;52.328;13.070;2023-04-01T08:05:56;12.80;99.90
12815;DHT22;6472;52.328;13.070;2023-04-01T08:08:35;13.00;99.90
12815;DHT22;6472;52.328;13.070;2023-04-01T08:11:12;12.90;99.90
12815;DHT22;6472;52.328;13.070;2023-04-01T08:13:47;12.90;99.90
12815;DHT22;6472;52.328;13.070;2023-04-01T08:16:24;13.00;99.90
12815;DHT22;6472;52.328;13.070;2023-04-01T08:19:03;12.90;99.90
12815;DHT22;6472;52.328;13.070;2023-04-01T08:21:42;12.80;99.90
12815;DHT22;6472;52.328;13.070;2023-04-01T08:24:17;12.80;99.90
12815;DHT22;6472;52.328;13.070;2023-04-01T08:26:52;12.90;99.90
12815;DHT22;6472;52.328;13.070;2023-04-01T08:29:23;12.90;99.90
12815;DHT22;6472;52.328;13.070;2023-04-01T08:31:56;12.70;99.90
12815;DHT22;6472;52.328;13.070;2023-04-01T08:34:30;12.70;99.90
12815;DHT22;6472;52.328;13.070;2023-04-01T08:37:04;12.90;99.90
12815;DHT22;6472;52.328;13.070;2023-04-01T08:39:36;13.00;99.90
12815;DHT22;6472;52.328;13.070;2023-04-01T08:42:23;13.20;99.90
12815;DHT22;6472;52.328;13.070;2023-04-01T08:45:27;13.20;99.90
12815;DHT22;6472;52.328;13.070;2023-04-01T08:51:28;13.30;99.90
12815;DHT22;6472;52.328;13.070;2023-04-01T08:54:27;13.10;99.90
12815;DHT22;6472;52.328;13.070;2023-04-01T08:57:05;13.00;99.90
12815;DHT22;6472;52.328;13.070;2023-04-01T09:02:49;13.20;99.90
12815;DHT22;6472;52.328;13.070;2023-04-01T09:05:34;13.10;99.90
12815;DHT22;6472;52.328;13.070;2023-04-01T09:08:16;13.10;99.90
12815;DHT22;6472;52.328;13.070;2023-04-01T09:10:58;13.10;99.90
12815;DHT22;6472;52.328;13.070;2023-04-01T09:13:50;13.10;99.90
12815;DHT22;6472;52.328;13.070;2023-04-01T09:16:40;13.10;99.90
12815;DHT22;6472;52.328;13.070;2023-04-01T09:19:21;12.90;99.90
12815;DHT22;6472;52.328;13.070;2023-04-01T09:22:19;12.90;99.90
12815;DHT22;6472;52.328;13.070;2023-04-01T09:25:06;12.80;99.90
12815;DHT22;6472;52.328;13.070;2023-04-01T09:27:44;12.80;99.90
12815;DHT22;6472;52.328;13.070;2023-04-01T09:30:39;12.80;99.90
12815;DHT22;6472;52.328;13.070;2023-04-01T09:33:40;13.00;99.90
12815;DHT22;6472;52.328;13.070;2023-04-01T09:36:22;13.10;99.90
12815;DHT22;6472;52.328;13.070;2023-04-01T09:38:56;13.20;99.90
12815;DHT22;6472;52.328;13.070;2023-04-01T09:41:30;13.60;99.90
12815;DHT22;6472;52.328;13.070;2023-04-01T09:44:02;13.60;99.90
12815;DHT22;6472;52.328;13.070;2023-04-01T09:46:46;13.20;99.90
12815;DHT22;6472;52.328;13.070;2023-04-01T09:49:34;13.10;99.90
12815;DHT22;6472;52.328;13.070;2023-04-01T09:52:16;13.20;99.90
12815;DHT22;6472;52.328;13.070;2023-04-01T09:55:14;13.40;99.90
12815;DHT22;6472;52.328;13.070;2023-04-01T10:01:29;13.50;99.90
12815;DHT22;6472;52.328;13.070;2023-04-01T10:04:24;13.60;99.90
12815;DHT22;6472;52.328;13.070;2023-04-01T10:10:20;13.80;99.90
12815;DHT22;6472;52.328;13.070;2023-04-01T10:16:32;14.10;99.90
12815;DHT22;6472;52.328;13.070;2023-04-01T10:22:32;14.10;99.90
12815;DHT22;6472;52.328;13.070;2023-04-01T10:25:23;14.10;99.90
12815;DHT22;6472;52.328;13.070;2023-04-01T10:28:18;14.10;99.90
12815;DHT22;6472;52.328;13.070;2023-04-01T10:31:20;14.20;99.90
12815;DHT22;6472;52.328;13.070;2023-04-01T10:37:06;14.10;99.90
12815;DHT22;6472;52.328;13.070;2023-04-01T10:40:15;13.80;99.90
12815;DHT22;6472;52.328;13.070;2023-04-01T10:49:29;13.70;99.90
12815;DHT22;6472;52.328;13.070;2023-04-01T10:55:37;13.50;99.90
12815;DHT22;6472;52.328;13.070;2023-04-01T10:58:52;13.20;99.90
12815;DHT22;6472;52.328;13.070;2023-04-01T11:05:20;12.40;99.90
12815;DHT22;6472;52.328;13.070;2023-04-01T11:11:24;12.00;99.90
12815;DHT22;6472;52.328;13.070;2023-04-01T11:14:16;12.00;99.90
12815;DHT22;6472;52.328;13.070;2023-04-01T11:20:25;12.30;99.90
12815;DHT22;6472;52.328;13.070;2023-04-01T11:23:13;12.30;99.90
12815;DHT22;6472;52.328;13.070;2023-04-01T11:26:03;12.00;99.90
12815;DHT22;6472;52.328;13.070;2023-04-01T11:31:53;11.80;99.90
12815;DHT22;6472;52.328;13.070;2023-04-01T11:34:53;11.70;99.90
12815;DHT22;6472;52.328;13.070;2023-04-01T11:37:33;11.60;99.90
12815;DHT22;6472;52.328;13.070;2023-04-01T11:40:12;11.50;99.90
12815;DHT22;6472;52.328;13.070;2023-04-01T11:42:51;11.50;99.90
12815;DHT22;6472;52.328;13.070;2023-04-01T11:45:30;11.40;99.90
12815;DHT22;6472;52.328;13.070;2023-04-01T11:48:17;11.30;99.90
12815;DHT22;6472;52.328;13.070;2023-04-01T11:50:59;11.20;99.90
12815;DHT22;6472;52.328;13.070;2023-04-01T11:53:37;11.30;99.90
12815;DHT22;6472;52.328;13.070;2023-04-01T11:56:18;11.20;99.90
12815;DHT22;6472;52.328;13.070;2023-04-01T11:59:26;11.10;99.90
12815;DHT22;6472;52.328;13.070;2023-04-01T12:02:03;11.20;99.90
12815;DHT22;6472;52.328;13.070;2023-04-01T12:05:07;11.00;99.90
12815;DHT22;6472;52.328;13.070;2023-04-01T12:07:59;10.80;99.90
12815;DHT22;6472;52.328;13.070;2023-04-01T12:10:39;10.80;99.90
12815;DHT22;6472;52.328;13.070;2023-04-01T12:13:17;10.60;99.90
12815;DHT22;6472;52.328;13.070;2023-04-01T12:16:01;10.60;99.90
12815;DHT22;6472;52.328;13.070;2023-04-01T12:18:38;10.60;99.90
12815;DHT22;6472;52.328;13.070;2023-04-01T12:21:17;10.60;99.90
12815;DHT22;6472;52.328;13.070;2023-04-01T12:24:00;10.60;99.90
12815;DHT22;6472;52.328;13.070;2023-04-01T12:26:40;10.50;99.90
12815;DHT22;6472;52.328;13.070;2023-04-01T12:29:41;10.40;99.90
12815;DHT22;6472;52.328;13.070;2023-04-01T12:32:17;10.30;99.90
12815;DHT22;6472;52.328;13.070;2023-04-01T12:35:13;10.20;99.90
12815;DHT22;6472;52.328;13.070;2023-04-01T12:37:51;10.20;99.90
12815;DHT22;6472;52.328;13.070;2023-04-01T12:40:50;10.20;99.90
12815;DHT22;6472;52.328;13.070;2023-04-01T12:46:34;9.90;99.90
12815;DHT22;6472;52.328;13.070;2023-04-01T12:49:25;9.90;99.90
12815;DHT22;6472;52.328;13.070;2023-04-01T12:52:05;9.90;99.90
12815;DHT22;6472;52.328;13.070;2023-04-01T12:55:02;9.80;99.90
12815;DHT22;6472;52.328;13.070;2023-04-01T13:01:06;10.00;99.90
12815;DHT22;6472;52.328;13.070;2023-04-01T13:03:59;9.80;99.90
12815;DHT22;6472;52.328;13.070;2023-04-01T13:06:38;9.90;99.90
12815;DHT22;6472;52.328;13.070;2023-04-01T13:09:19;9.90;99.90
12815;DHT22;6472;52.328;13.070;2023-04-01T13:12:04;9.90;99.90
12815;DHT22;6472;52.328;13.070;2023-04-01T13:14:45;9.90;99.90
12815;DHT22;6472;52.328;13.070;2023-04-01T13:17:21;9.80;99.90
12815;DHT22;6472;52.328;13.070;2023-04-01T13:19:54;9.90;99.90
12815;DHT22;6472;52.328;13.070;2023-04-01T13:22:41;9.90;99.90
12815;DHT22;6472;52.328;13.070;2023-04-01T13:25:23;9.90;99.90
12815;DHT22;6472;52.328;13.070;2023-04-01T13:28:00;9.90;99.90
12815;DHT22;6472;52.328;13.070;2023-04-01T13:30:35;9.90;99.90
12815;DHT22;6472;52.328;13.070;2023-04-01T13:33:14;9.90;99.90
12815;DHT22;6472;52.328;13.070;2023-04-01T13:35:51;9.80;99.90
12815;DHT22;6472;52.328;13.070;2023-04-01T13:38:57;9.80;99.90
12815;DHT22;6472;52.328;13.070;2023-04-01T13:41:55;9.80;99.90
12815;DHT22;6472;52.328;13.070;2023-04-01T13:44:32;9.50;99.90
12815;DHT22;6472;52.328;13.070;2023-04-01T13:47:11;9.50;99.90
12815;DHT22;6472;52.328;13.070;2023-04-01T13:49:57;9.50;99.90
12815;DHT22;6472;52.328;13.070;2023-04-01T13:52:56;9.50;99.90
12815;DHT22;6472;52.328;13.070;2023-04-01T13:55:55;9.40;99.90
12815;DHT22;6472;52.328;13.070;2023-04-01T13:58:43;9.20;99.90
12815;DHT22;6472;52.328;13.070;2023-04-01T14:01:23;9.30;99.90
12815;DHT22;6472;52.328;13.070;2023-04-01T14:04:46;9.40;99.90
12815;DHT22;6472;52.328;13.070;2023-04-01T14:10:21;9.50;99.90
12815;DHT22;6472;52.328;13.070;2023-04-01T14:12:58;9.30;99.90
12815;DHT22;6472;52.328;13.070;2023-04-01T14:15:40;9.30;99.90
12815;DHT22;6472;52.328;13.070;2023-04-01T14:18:19;9.20;99.90
12815;DHT22;6472;52.328;13.070;2023-04-01T14:20:54;9.10;99.90
12815;DHT22;6472;52.328;13.070;2023-04-01T14:23:41;9.10;99.90
12815;DHT22;6472;52.328;13.070;2023-04-01T14:26:35;9.00;99.90
12815;DHT22;6472;52.328;13.070;2023-04-01T14:29:18;9.00;99.90
12815;DHT22;6472;52.328;13.070;2023-04-01T14:32:02;8.90;99.90
12815;DHT22;6472;52.328;13.070;2023-04-01T14:34:51;8.80;99.90
12815;DHT22;6472;52.328;13.070;2023-04-01T14:37:55;8.70;99.90
12815;DHT22;6472;52.328;13.070;2023-04-01T14:40:48;8.60;99.90
12815;DHT22;6472;52.328;13.070;2023-04-01T14:43:38;8.60;99.90
12815;DHT22;6472;52.328;13.070;2023-04-01T14:46:23;8.50;99.90
12815;DHT22;6472;52.328;13.070;2023-04-01T14:48:57;8.50;99.90
12815;DHT22;6472;52.328;13.070;2023-04-01T14:51:32;8.40;99.90
12815;DHT22;6472;52.328;13.070;2023-04-01T14:54:08;8.30;99.90
12815;DHT22;6472;52.328;13.070;2023-04-01T14:56:39;8.40;99.90
12815;DHT22;6472;52.328;13.070;2023-04-01T14:59:10;8.30;99.90
12815;DHT22;6472;52.328;13.070;2023-04-01T15:01:47;8.30;99.90
12815;DHT22;6472;52.328;13.070;2023-04-01T15:04:30;8.20;99.90
12815;DHT22;6472;52.328;13.070;2023-04-01T15:07:18;8.20;99.90
12815;DHT22;6472;52.328;13.070;2023-04-01T15:09:55;8.20;99.90
12815;DHT22;6472;52.328;13.070;2023-04-01T15:12:30;8.20;99.90
12815;DHT22;6472;52.328;13.070;2023-04-01T15:15:19;8.10;99.90
12815;DHT22;6472;52.328;13.070;2023-04-01T15:18:03;8.10;99.90
12815;DHT22;6472;52.328;13.070;2023-04-01T15:21:02;8.00;99.90
12815;DHT22;6472;52.328;13.070;2023-04-01T15:23:43;8.00;99.90
12815;DHT22;6472;52.328;13.070;2023-04-01T15:26:22;8.00;99.90
12815;DHT22;6472;52.328;13.070;2023-04-01T15:29:05;8.00;99.90
12815;DHT22;6472;52.328;13.070;2023-04-01T15:31:38;7.90;99.90
12815;DHT22;6472;52.328;13.070;2023-04-01T15:34:24;7.80;99.90
12815;DHT22;6472;52.328;13.070;2023-04-01T15:36:57;7.90;99.90
12815;DHT22;6472;52.328;13.070;2023-04-01T15:39:38;8.00;99.90
12815;DHT22;6472;52.328;13.070;2023-04-01T15:42:18;7.90;99.90
12815;DHT22;6472;52.328;13.070;2023-04-01T15:44:58;7.90;99.90
12815;DHT22;6472;52.328;13.070;2023-04-01T15:47:34;7.80;99.90
12815;DHT22;6472;52.328;13.070;2023-04-01T15:53:29;7.70;99.90
12815;DHT22;6472;52.328;13.070;2023-04-01T15:56:11;7.70;99.90
12815;DHT22;6472;52.328;13.070;2023-04-01T15:58:51;7.70;99.90
12815;DHT22;6472;52.328;13.070;2023-04-01T16:01:29;7.70;99.90
12815;DHT22;6472;52.328;13.070;2023-04-01T16:04:20;7.60;99.90
12815;DHT22;6472;52.328;13.070;2023-04-01T16:06:57;7.50;99.90
12815;DHT22;6472;52.328;13.070;2023-04-01T16:09:39;7.40;99.90
12815;DHT22;6472;52.328;13.070;2023-04-01T16:12:17;7.40;99.90
12815;DHT22;6472;52.328;13.070;2023-04-01T16:14:58;7.40;99.90
12815;DHT22;6472;52.328;13.070;2023-04-01T16:17:54;7.30;99.90
12815;DHT22;6472;52.328;13.070;2023-04-01T16:20:40;7.20;99.90
12815;DHT22;6472;52.328;13.070;2023-04-01T16:23:15;7.20;99.90
12815;DHT22;6472;52.328;13.070;2023-04-01T16:25:49;7.20;99.90
12815;DHT22;6472;52.328;13.070;2023-04-01T16:28:24;7.20;99.90
12815;DHT22;6472;52.328;13.070;2023-04-01T16:30:58;7.10;99.90
12815;DHT22;6472;52.328;13.070;2023-04-01T16:33:35;7.00;99.90
12815;DHT22;6472;52.328;13.070;2023-04-01T16:36:12;7.00;99.90
12815;DHT22;6472;52.328;13.070;2023-04-01T16:38:46;7.00;99.90
12815;DHT22;6472;52.328;13.070;2023-04-01T16:41:20;7.00;99.90
12815;DHT22;6472;52.328;13.070;2023-04-01T16:43:56;6.90;99.90
12815;DHT22;6472;52.328;13.070;2023-04-01T16:46:32;6.80;99.90
12815;DHT22;6472;52.328;13.070;2023-04-01T16:49:13;6.70;99.90
12815;DHT22;6472;52.328;13.070;2023-04-01T16:51:47;6.70;99.90
12815;DHT22;6472;52.328;13.070;2023-04-01T16:54:26;6.70;99.90
12815;DHT22;6472;52.328;13.070;2023-04-01T16:57:03;6.60;99.90
12815;DHT22;6472;52.328;13.070;2023-04-01T16:59:36;6.60;99.90
12815;DHT22;6472;52.328;13.070;2023-04-01T17:02:10;6.50;99.90
12815;DHT22;6472;52.328;13.070;2023-04-01T17:04:44;6.50;99.90
12815;DHT22;6472;52.328;13.070;2023-04-01T17:07:23;6.50;99.90
12815;DHT22;6472;52.328;13.070;2023-04-01T17:10:06;6.50;99.90
12815;DHT22;6472;52.328;13.070;2023-04-01T17:12:43;6.50;99.90
12815;DHT22;6472;52.328;13.070;2023-04-01T17:15:22;6.50;99.90
12815;DHT22;6472;52.328;13.070;2023-04-01T17:18:00;6.50;99.90
12815;DHT22;6472;52.328;13.070;2023-04-01T17:20:35;6.50;99.90
12815;DHT22;6472;52.328;13.070;2023-04-01T17:23:14;6.40;99.90
12815;DHT22;6472;52.328;13.070;2023-04-01T17:26:00;6.30;99.90
12815;DHT22;6472;52.328;13.070;2023-04-01T17:28:36;6.20;99.90
12815;DHT22;6472;52.328;13.070;2023-04-01T17:31:14;6.20;99.90
12815;DHT22;6472;52.328;13.070;2023-04-01T17:34:11;6.20;99.90
12815;DHT22;6472;52.328;13.070;2023-04-01T17:39:46;6.20;99.90
12815;DHT22;6472;52.328;13.070;2023-04-01T17:42:25;6.10;99.90
12815;DHT22;6472;52.328;13.070;2023-04-01T17:44:59;6.10;99.90
12815;DHT22;6472;52.328;13.070;2023-04-01T17:48:00;6.10;99.90
12815;DHT22;6472;52.328;13.070;2023-04-01T17:50:43;6.00;99.90
12815;DHT22;6472;52.328;13.070;2023-04-01T17:53:20;6.00;99.90
12815;DHT22;6472;52.328;13.070;2023-04-01T17:56:08;6.00;99.90
12815;DHT22;6472;52.328;13.070;2023-04-01T17:58:45;5.90;99.90
12815;DHT22;6472;52.328;13.070;2023-04-01T18:01:23;5.90;99.90
12815;DHT22;6472;52.328;13.070;2023-04-01T18:04:24;6.00;99.90